Time;durP1;ratioP1;P1;durP2;ratioP2;P2;SDS_P1;SDS_P2;PMS_P1;PMS_P2;Temp;Humidity;BMP_temperature;BMP_pressure;BME280_temperature;BME280_humidity;BME280_pressure;Samples;Min_cycle;Max_cycle;Signal;HPM_P1;HPM_P2
2022/06/17 08:12:25;;;;;;;1.65;1.00;;;;;;;25.07;30.04;100155.62;1704320;81;21148;-39
2022/06/17 08:14:54;;;;;;;3.08;1.02;;;;;;;25.19;27.97;100154.84;1745450;82;21178;-39
2022/06/17 08:17:24;;;;;;;9.48;1.07;;;;;;;25.06;29.06;100160.59;1731659;80;21084;-39
2022/06/17 08:19:56;;;;;;;1.95;0.95;;;;;;;24.82;28.61;100158.92;1692493;83;21388;-44
2022/06/17 08:22:21;;;;;;;6.83;0.90;;;;;;;24.68;29.45;100151.72;1743928;82;21581;-40
2022/06/17 08:24:49;;;;;;;2.00;0.82;;;;;;;24.77;29.87;100154.33;1679476;84;21626;-44
2022/06/17 08:27:16;;;;;;;4.00;1.00;;;;;;;24.92;28.96;100148.02;1673265;83;21608;-40
2022/06/17 08:29:43;;;;;;;2.65;1.07;;;;;;;25.07;29.82;100150.27;1679079;84;21070;-40
2022/06/17 08:35:00;;;;;;;3.47;1.00;;;;;;;25.43;28.28;100140.38;1696105;84;21163;-40
2022/06/17 08:37:29;;;;;;;2.27;1.10;;;;;;;25.60;28.40;100141.97;1725204;83;21653;-41
2022/06/17 08:39:59;;;;;;;10.88;1.22;;;;;;;25.71;27.98;100146.64;1668700;83;21139;-44
2022/06/17 08:42:49;;;;;;;2.83;1.00;;;;;;;25.73;28.61;100142.92;1713904;83;21506;-40
2022/06/17 08:45:36;;;;;;;4.30;1.17;;;;;;;25.72;28.50;100141.17;1711931;82;21941;-45
2022/06/17 08:48:58;;;;;;;4.55;1.10;;;;;;;25.77;28.35;100142.73;1705225;82;21060;-45
2022/06/17 08:51:50;;;;;;;2.02;0.90;;;;;;;25.93;28.30;100132.25;1708124;83;21590;-40
2022/06/17 08:54:31;;;;;;;3.05;1.02;;;;;;;26.18;28.72;100142.19;1769949;80;21111;-41
2022/06/17 08:57:56;;;;;;;4.30;1.50;;;;;;;26.33;26.85;100137.62;1744058;82;21083;-45
2022/06/17 09:00:55;;;;;;;5.97;1.45;;;;;;;26.39;27.54;100141.23;1713760;82;21495;-42
2022/06/17 09:03:57;;;;;;;5.50;1.40;;;;;;;26.34;26.83;100135.31;1709781;81;21036;-42
2022/06/17 09:06:49;;;;;;;4.92;1.22;;;;;;;26.37;28.29;100146.30;1706796;83;21089;-42
2022/06/17 09:09:53;;;;;;;1.57;0.98;;;;;;;26.44;27.61;100141.81;1691351;84;21065;-45
2022/06/17 09:12:34;;;;;;;6.53;1.22;;;;;;;26.40;26.12;100144.77;1691335;83;21045;-41
2022/06/17 09:15:33;;;;;;;2.47;1.10;;;;;;;26.24;26.63;100136.41;1693938;84;21215;-41
2022/06/17 09:18:06;;;;;;;2.65;1.20;;;;;;;26.26;26.82;100140.31;1648846;83;21088;-42
2022/06/17 09:20:59;;;;;;;10.05;1.15;;;;;;;26.16;27.73;100132.05;1713041;83;21208;-45
2022/06/17 09:23:45;;;;;;;2.10;0.98;;;;;;;26.19;27.40;100131.84;1667240;85;21099;-48
2022/06/17 09:26:44;;;;;;;4.05;1.20;;;;;;;26.24;27.55;100130.19;1692097;85;21174;-45
2022/06/17 09:37:16;;;;;;;4.42;1.30;;;;;;;26.11;27.67;100130.64;1645882;86;21510;-44
2022/06/17 09:40:51;;;;;;;6.15;1.62;;;;;;;25.97;27.75;100122.17;1652001;86;21077;-48
2022/06/17 09:43:56;;;;;;;4.17;1.45;;;;;;;25.97;27.76;100122.17;1682247;83;21491;-48
2022/06/17 09:46:43;;;;;;;1.62;1.02;;;;;;;26.23;28.59;100125.31;1711082;83;21572;-44
2022/06/17 09:49:28;;;;;;;2.37;1.35;;;;;;;26.41;28.02;100117.87;1712750;83;21177;-44
2022/06/17 09:52:11;;;;;;;4.47;1.65;;;;;;;26.61;26.48;100124.53;1714463;83;20968;-45
2022/06/17 09:54:50;;;;;;;2.00;1.17;;;;;;;26.74;26.25;100120.05;1700475;83;21048;-49
2022/06/17 09:57:37;;;;;;;2.10;1.10;;;;;;;26.87;26.76;100126.75;1722178;83;20988;-49
2022/06/17 10:00:13;;;;;;;3.85;1.27;;;;;;;26.94;26.00;100124.00;1721787;83;21547;-48
2022/06/17 10:03:08;;;;;;;4.03;1.37;;;;;;;26.91;26.87;100115.33;1720355;83;20995;-48
2022/06/17 10:05:56;;;;;;;2.12;1.12;;;;;;;26.98;26.25;100115.27;1722152;83;21067;-45
2022/06/17 10:08:44;;;;;;;6.87;1.55;;;;;;;26.95;25.89;100108.27;1721018;83;21508;-45
2022/06/17 10:11:17;;;;;;;6.05;1.27;;;;;;;26.89;26.34;100101.99;1696659;83;21615;-45
2022/06/17 10:13:55;;;;;;;4.28;1.32;;;;;;;26.79;27.26;100117.91;1680000;85;21056;-45
2022/06/17 10:19:58;;;;;;;6.50;1.55;;;;;;;26.56;26.77;100111.94;1695024;84;21167;-45
2022/06/17 10:22:42;;;;;;;2.20;1.45;;;;;;;26.49;27.13;100107.95;1713179;84;21048;-48
2022/06/17 10:25:36;;;;;;;5.75;1.67;;;;;;;26.55;27.12;100095.45;1713162;84;21131;-46
2022/06/17 10:28:13;;;;;;;4.53;1.60;;;;;;;26.65;27.17;100090.31;1713149;84;20993;-49
2022/06/17 10:30:56;;;;;;;7.30;1.15;;;;;;;26.83;26.91;100094.37;1712665;83;21116;-45
2022/06/17 10:33:23;;;;;;;7.73;1.37;;;;;;;26.99;26.22;100086.96;1712721;83;21028;-48
2022/06/17 10:35:51;;;;;;;8.33;2.05;;;;;;;27.16;26.60;100078.22;1712460;83;21662;-45
2022/06/17 10:38:25;;;;;;;6.03;1.40;;;;;;;27.42;25.79;100084.36;1693890;83;21067;-50
2022/06/17 10:40:53;;;;;;;6.67;1.55;;;;;;;27.56;24.96;100070.78;1693190;83;21134;-48
2022/06/17 10:43:25;;;;;;;7.40;1.67;;;;;;;27.48;25.64;100074.02;1720314;83;21016;-48
2022/06/17 10:45:52;;;;;;;5.42;1.40;;;;;;;27.29;25.50;100075.86;1719778;83;21075;-45
2022/06/17 10:48:40;;;;;;;3.05;1.10;;;;;;;27.08;25.96;100075.20;1694433;83;20980;-45
2022/06/17 10:51:07;;;;;;;3.12;1.10;;;;;;;27.00;26.04;100071.22;1694135;83;21072;-48
2022/06/17 10:53:39;;;;;;;9.40;1.15;;;;;;;27.09;26.31;100066.22;1694421;83;21056;-48
2022/06/17 10:56:32;;;;;;;5.60;1.70;;;;;;;27.33;26.59;100057.70;1694651;83;21068;-46
2022/06/17 10:59:10;;;;;;;1.50;1.00;;;;;;;27.58;25.63;100056.25;1701433;84;21040;-42
2022/06/17 11:01:53;;;;;;;3.12;1.27;;;;;;;27.57;25.66;100060.41;1701104;84;21846;-46
2022/06/17 11:04:34;;;;;;;5.12;1.55;;;;;;;27.52;25.78;100051.83;1673430;84;21051;-46
2022/06/17 11:07:20;;;;;;;4.85;1.17;;;;;;;27.62;25.59;100054.20;1700979;84;21050;-43
2022/06/17 11:09:59;;;;;;;6.97;1.80;;;;;;;27.52;25.86;100039.25;1677108;84;21166;-43
2022/06/17 11:12:36;;;;;;;4.33;1.82;;;;;;;27.55;26.64;100041.72;1701317;84;21103;-47
2022/06/17 11:15:20;;;;;;;9.28;1.65;;;;;;;27.50;27.16;100038.52;1699948;84;21079;-47
2022/06/17 11:17:49;;;;;;;5.80;1.60;;;;;;;27.46;26.70;100039.70;1701093;84;21083;-47
2022/06/17 11:20:27;;;;;;;1.52;1.15;;;;;;;27.44;27.29;100040.80;1701152;84;21083;-44
2022/06/17 11:23:05;;;;;;;3.67;1.50;;;;;;;27.34;27.21;100037.08;1678119;84;21078;-47
2022/06/17 11:25:38;;;;;;;5.50;1.72;;;;;;;27.22;28.14;100040.17;1700878;84;21127;-44
2022/06/17 11:28:28;;;;;;;4.40;1.50;;;;;;;27.16;28.26;100039.28;1701314;84;21055;-44
2022/06/17 11:31:06;;;;;;;3.37;1.50;;;;;;;27.07;28.53;100048.00;1673870;84;21633;-43
2022/06/17 11:33:44;;;;;;;2.52;1.52;;;;;;;26.95;28.22;100039.83;1701241;84;21028;-47
2022/06/17 11:36:20;;;;;;;1.87;1.30;;;;;;;26.85;28.28;100030.74;1679616;83;21107;-47
2022/06/17 11:38:48;;;;;;;5.00;1.60;;;;;;;26.91;28.84;100029.45;1719091;83;21005;-47
2022/06/17 11:41:22;;;;;;;2.27;1.37;;;;;;;27.03;28.46;100026.72;1719023;83;21028;-44
2022/06/17 11:43:51;;;;;;;5.33;1.65;;;;;;;27.11;29.09;100021.31;1721368;83;21067;-44
2022/06/17 11:46:24;;;;;;;11.50;2.40;;;;;;;27.17;28.34;100023.55;1720876;83;21067;-47
2022/06/17 11:49:09;;;;;;;4.80;1.62;;;;;;;27.23;28.21;100019.06;1658300;83;21427;-44
2022/06/17 11:51:41;;;;;;;4.30;1.60;;;;;;;27.34;28.17;100018.28;1680450;83;21068;-47
2022/06/17 11:54:32;;;;;;;1.80;1.30;;;;;;;27.43;28.03;100006.37;1721027;83;21040;-47
2022/06/17 11:57:30;;;;;;;4.08;1.45;;;;;;;27.52;27.77;100007.02;1688324;83;21005;-47
2022/06/17 12:00:03;;;;;;;1.45;1.25;;;;;;;27.54;28.93;100002.86;1721227;83;21131;-47
2022/06/17 12:02:36;;;;;;;3.15;1.40;;;;;;;27.65;28.81;100001.56;1720136;83;21083;-45
2022/06/17 12:05:22;;;;;;;2.17;1.25;;;;;;;27.71;28.17;99999.79;1694926;83;21155;-47
2022/06/17 12:08:02;;;;;;;13.30;2.92;;;;;;;27.71;28.02;99991.73;1718244;83;21139;-47
2022/06/17 12:10:50;;;;;;;5.75;1.62;;;;;;;27.72;28.51;99988.59;1721086;83;21199;-44
2022/06/17 12:13:45;;;;;;;3.47;1.62;;;;;;;27.79;27.95;99986.65;1721416;83;21060;-47
2022/06/17 12:16:23;;;;;;;4.97;1.60;;;;;;;27.71;28.23;99981.47;1694863;83;21531;-49
2022/06/17 12:18:58;;;;;;;5.22;1.50;;;;;;;27.61;27.85;99980.45;1673133;83;21131;-47
2022/06/17 12:21:59;;;;;;;4.08;1.67;;;;;;;27.44;28.48;99983.91;1695147;83;21135;-47
2022/06/17 12:24:49;;;;;;;8.08;1.70;;;;;;;27.30;28.30;99981.38;1717899;83;21105;-44
2022/06/17 12:27:26;;;;;;;7.83;1.32;;;;;;;27.11;28.14;99975.67;1667290;86;21009;-47
2022/06/17 12:30:20;;;;;;;6.22;1.17;;;;;;;27.02;28.83;99967.30;1666999;85;21111;-47
2022/06/17 12:33:13;;;;;;;2.62;1.62;;;;;;;27.10;29.00;99969.94;1666243;86;21586;-44
2022/06/17 12:35:52;;;;;;;8.83;2.05;;;;;;;27.24;28.85;99969.27;1635788;87;21187;-47
2022/06/17 12:38:40;;;;;;;7.47;1.80;;;;;;;27.46;28.07;99963.64;1619058;88;21082;-44
2022/06/17 12:41:25;;;;;;;5.55;1.87;;;;;;;27.59;28.12;99953.67;1613283;89;21150;-47
2022/06/17 12:44:17;;;;;;;3.45;1.55;;;;;;;27.72;28.01;99953.66;1587238;87;21244;-48
2022/06/17 12:46:58;;;;;;;4.60;1.92;;;;;;;27.74;27.25;99953.03;1605573;89;21133;-48
2022/06/17 12:55:37;;;;;;;3.37;1.47;;;;;;;26.99;28.27;99966.17;1605734;89;21128;-46
2022/06/17 12:58:21;;;;;;;4.67;1.80;;;;;;;26.83;28.57;99962.88;1592615;89;28565;-48
2022/06/17 13:00:52;;;;;;;3.50;1.40;;;;;;;26.79;28.49;99958.25;1579970;90;21131;-44
2022/06/17 13:03:46;;;;;;;3.20;1.50;;;;;;;26.77;28.53;99956.14;1591530;90;21076;-45
2022/06/17 13:06:51;;;;;;;2.55;1.37;;;;;;;26.77;28.89;99962.84;1611543;89;21063;-49
2022/06/17 13:09:27;;;;;;;5.67;1.60;;;;;;;26.83;28.70;99942.76;1612015;89;21071;-48
2022/06/17 13:12:30;;;;;;;8.20;1.50;;;;;;;26.92;28.95;99946.13;1596973;86;21059;-48
2022/06/17 13:15:01;;;;;;;;;;;;;;;26.99;28.86;99940.67;1642301;86;21083;-45
2022/06/17 13:18:01;;;;;;;5.85;1.57;;;;;;;26.99;29.36;99936.65;1658925;86;20150;-48
2022/06/17 13:20:57;;;;;;;5.17;1.60;;;;;;;26.97;28.96;99937.74;1640570;86;21144;-49
2022/06/17 13:23:38;;;;;;;5.28;1.45;;;;;;;26.89;29.03;99939.63;1658955;86;21092;-45
2022/06/17 13:26:31;;;;;;;5.75;1.50;;;;;;;26.84;29.15;99935.08;1658772;86;21072;-44
2022/06/17 13:29:20;;;;;;;2.50;1.45;;;;;;;26.82;29.14;99932.15;1639180;86;21088;-49
2022/06/17 13:31:55;;;;;;;9.53;2.92;;;;;;;26.74;29.92;99931.38;1658540;86;21666;-47
2022/06/17 13:34:34;;;;;;;5.28;1.82;;;;;;;26.63;30.61;99938.00;1662685;85;21089;-43
2022/06/17 13:37:28;;;;;;;10.25;1.70;;;;;;;26.52;30.96;99930.72;1678374;84;21104;-48
2022/06/17 13:40:02;;;;;;;2.90;1.20;;;;;;;26.45;31.24;99935.67;1698879;83;21570;-43
2022/06/17 13:42:31;;;;;;;3.67;1.50;;;;;;;26.38;32.07;99937.51;1699247;83;21118;-43
2022/06/17 13:45:30;;;;;;;2.20;1.52;;;;;;;26.27;32.25;99938.30;1701002;82;21593;-46
2022/06/17 13:48:15;;;;;;;4.95;1.87;;;;;;;26.14;32.50;99930.23;1664780;83;21105;-43
2022/06/17 13:51:31;;;;;;;4.20;1.45;;;;;;;26.02;33.14;99931.58;1699176;82;21040;-43
2022/06/17 13:54:38;;;;;;;9.45;1.70;;;;;;;25.99;33.84;99923.28;1728483;82;21064;-44
2022/06/17 13:57:29;;;;;;;9.28;1.62;;;;;;;26.05;31.68;99916.64;1726515;82;21067;-47
2022/06/17 14:00:17;;;;;;;3.33;1.60;;;;;;;26.09;32.15;99920.80;1714790;82;21744;-47
2022/06/17 14:03:07;;;;;;;6.17;1.70;;;;;;;26.11;31.91;99913.53;1663644;85;21089;-47
2022/06/17 14:05:52;;;;;;;4.50;1.67;;;;;;;26.09;32.26;99918.12;1661615;85;21817;-46
2022/06/17 14:08:20;;;;;;;7.90;2.22;;;;;;;26.06;32.32;99911.65;1662838;85;21084;-48
2022/06/17 14:11:31;;;;;;;3.17;1.42;;;;;;;26.04;32.83;99909.57;1639081;85;21566;-46
2022/06/17 14:13:34;;;;;;;7.00;1.90;;;;;;;26.05;32.49;99905.44;1631823;85;21681;-46
2022/06/17 14:16:30;;;;;;;6.45;2.12;;;;;;;26.08;32.64;99909.70;1643332;85;21034;-43
2022/06/17 14:19:03;;;;;;;4.97;1.80;;;;;;;26.10;32.85;99894.40;1667447;85;21089;-43
2022/06/17 14:21:46;;;;;;;2.35;1.60;;;;;;;26.18;33.73;99897.38;1641115;85;21041;-46
2022/06/17 14:24:21;;;;;;;3.70;1.67;;;;;;;26.29;33.41;99897.47;1663388;86;21141;-47
2022/06/17 14:31:24;;;;;;;8.33;2.05;;;;;;;26.49;32.59;99902.28;1639313;85;22445;-43
2022/06/17 14:34:07;;;;;;;4.15;1.50;;;;;;;26.58;32.13;99897.23;1629719;88;21134;-47
2022/06/17 14:36:58;;;;;;;6.22;1.60;;;;;;;26.63;31.88;99897.77;1677023;83;21011;-44
2022/06/17 14:39:49;;;;;;;3.75;1.60;;;;;;;26.71;31.69;99899.39;1725107;83;21083;-44
2022/06/17 14:42:24;;;;;;;3.12;1.52;;;;;;;26.78;31.34;99895.28;1699404;84;21056;-44
2022/06/17 14:45:14;;;;;;;7.30;2.17;;;;;;;26.80;30.38;99906.78;1724013;83;21107;-46
2022/06/17 14:47:46;;;;;;;2.33;1.47;;;;;;;26.80;31.40;99901.41;1721914;83;21035;-47
2022/06/17 14:50:23;;;;;;;10.13;1.50;;;;;;;26.84;30.97;99901.53;1696314;83;21166;-47
2022/06/17 14:52:59;;;;;;;2.58;1.75;;;;;;;26.89;31.11;99907.42;1700481;83;21067;-44
2022/06/17 14:55:32;;;;;;;2.42;1.10;;;;;;;26.92;31.48;99900.98;1725366;83;21111;-44
2022/06/17 14:58:03;;;;;;;;;;;;;;;26.90;31.01;99901.08;1728430;83;21008;-45
2022/06/17 15:00:46;;;;;;;8.30;3.52;;;;;;;26.87;31.73;99904.50;1699820;83;20149;-44
2022/06/17 15:03:26;;;;;;;74.50;5.97;;;;;;;26.83;32.27;99908.36;1725592;83;21029;-44
2022/06/17 15:05:55;;;;;;;6.50;2.00;;;;;;;26.80;31.66;99906.78;1723590;83;21111;-43
2022/06/17 15:08:41;;;;;;;5.20;1.72;;;;;;;26.75;31.83;99902.23;1725630;83;21029;-44
2022/06/17 15:11:22;;;;;;;2.95;1.50;;;;;;;26.69;31.69;99906.70;1724497;83;21310;-47
2022/06/17 15:14:09;;;;;;;6.62;1.77;;;;;;;26.63;31.84;99904.47;1725727;83;21479;-43
2022/06/17 15:16:48;;;;;;;6.12;1.75;;;;;;;26.60;31.49;99902.84;1698819;83;21633;-44
2022/06/17 15:19:35;;;;;;;9.40;2.05;;;;;;;26.54;31.51;99907.31;1725748;83;21084;-47
2022/06/17 15:22:23;;;;;;;6.20;1.90;;;;;;;26.52;31.88;99903.41;1724617;83;21072;-44
2022/06/17 15:25:23;;;;;;;5.60;1.70;;;;;;;26.52;31.89;99899.88;1662074;85;21082;-43
2022/06/17 15:28:37;;;;;;;5.53;1.72;;;;;;;26.54;31.81;99904.64;1638945;87;21074;-44
2022/06/17 15:31:27;;;;;;;2.90;1.55;;;;;;;26.56;31.54;99902.72;1641506;87;21742;-47
2022/06/17 15:34:02;;;;;;;2.72;1.32;;;;;;;26.52;31.22;99898.53;1618509;87;21224;-48
2022/06/17 15:36:45;;;;;;;11.53;1.80;;;;;;;26.50;31.31;99897.80;1588225;89;21096;-44
2022/06/17 15:39:34;;;;;;;3.10;1.42;;;;;;;26.46;31.40;99893.62;1648226;86;21092;-47
2022/06/17 15:42:07;;;;;;;6.37;1.62;;;;;;;26.47;31.59;99898.01;1627920;87;21012;-48
2022/06/17 15:44:37;;;;;;;6.80;1.90;;;;;;;26.51;31.33;99896.34;1651290;86;21138;-48
2022/06/17 15:47:17;;;;;;;12.15;3.02;;;;;;;26.53;31.60;99893.54;1636144;86;21041;-44
2022/06/17 15:49:50;;;;;;;5.62;2.25;;;;;;;26.50;31.76;99897.31;1658246;86;21128;-47
2022/06/17 15:52:41;;;;;;;4.67;1.50;;;;;;;26.49;32.03;99895.58;1658578;86;21575;-47
2022/06/17 15:55:19;;;;;;;14.78;1.77;;;;;;;26.46;32.08;99894.47;1658565;86;21259;-47
2022/06/17 15:57:53;;;;;;;6.45;2.00;;;;;;;26.43;31.70;99900.53;1635215;86;21149;-47
2022/06/17 16:00:26;;;;;;;6.30;1.57;;;;;;;26.39;31.50;99894.52;1658720;86;21147;-44
2022/06/17 16:03:26;;;;;;;3.92;2.10;;;;;;;26.33;31.55;99898.12;1685537;84;21026;-43
2022/06/17 16:06:00;;;;;;;7.97;1.95;;;;;;;26.27;31.65;99892.72;1718079;83;21036;-47
2022/06/17 16:08:39;;;;;;;11.20;1.80;;;;;;;26.22;31.75;99897.55;1718489;83;21016;-47
2022/06/17 16:11:19;;;;;;;104.50;7.55;;;;;;;26.16;32.08;99896.16;1697335;83;21044;-44
2022/06/17 16:14:03;;;;;;;31.33;3.92;;;;;;;26.12;32.55;99898.67;1723253;83;21028;-47
